sensor_id;sensor_type;location;lat;lon;timestamp;temperature;humidity
38333;DHT22;25748;46.670;14.272;2023-06-14T00:00:19;16.50;66.20
38333;DHT22;25748;46.670;14.272;2023-06-14T00:02:46;16.50;66.00
38333;DHT22;25748;46.670;14.272;2023-06-14T00:05:12;16.40;66.30
38333;DHT22;25748;46.670;14.272;2023-06-14T00:07:41;16.40;66.20
38333;DHT22;25748;46.670;14.272;2023-06-14T00:10:14;16.30;67.10
38333;DHT22;25748;46.670;14.272;2023-06-14T00:12:40;16.30;67.40
38333;DHT22;25748;46.670;14.272;2023-06-14T00:15:07;16.30;67.60
38333;DHT22;25748;46.670;14.272;2023-06-14T00:17:35;16.30;67.40
38333;DHT22;25748;46.670;14.272;2023-06-14T00:20:03;16.30;67.50
38333;DHT22;25748;46.670;14.272;2023-06-14T00:22:31;16.30;67.30
38333;DHT22;25748;46.670;14.272;2023-06-14T00:24:58;16.30;67.20
38333;DHT22;25748;46.670;14.272;2023-06-14T00:27:24;16.30;67.30
38333;DHT22;25748;46.670;14.272;2023-06-14T00:29:50;16.20;67.10
38333;DHT22;25748;46.670;14.272;2023-06-14T00:32:16;16.20;67.50
38333;DHT22;25748;46.670;14.272;2023-06-14T00:34:41;16.20;67.40
38333;DHT22;25748;46.670;14.272;2023-06-14T00:37:07;16.20;67.50
38333;DHT22;25748;46.670;14.272;2023-06-14T00:39:33;16.20;67.40
38333;DHT22;25748;46.670;14.272;2023-06-14T00:41:59;16.20;67.50
38333;DHT22;25748;46.670;14.272;2023-06-14T00:44:24;16.10;67.50
38333;DHT22;25748;46.670;14.272;2023-06-14T00:46:50;16.20;67.80
38333;DHT22;25748;46.670;14.272;2023-06-14T00:49:18;16.10;68.40
38333;DHT22;25748;46.670;14.272;2023-06-14T00:51:45;16.10;69.10
38333;DHT22;25748;46.670;14.272;2023-06-14T00:54:10;16.00;69.30
38333;DHT22;25748;46.670;14.272;2023-06-14T00:56:36;16.00;69.80
38333;DHT22;25748;46.670;14.272;2023-06-14T00:59:03;15.90;69.90
38333;DHT22;25748;46.670;14.272;2023-06-14T01:01:30;15.80;70.10
38333;DHT22;25748;46.670;14.272;2023-06-14T01:03:58;15.80;69.90
38333;DHT22;25748;46.670;14.272;2023-06-14T01:06:46;15.80;69.80
38333;DHT22;25748;46.670;14.272;2023-06-14T01:12:09;15.80;69.20
38333;DHT22;25748;46.670;14.272;2023-06-14T01:14:38;15.80;68.80
38333;DHT22;25748;46.670;14.272;2023-06-14T01:17:04;15.80;68.10
38333;DHT22;25748;46.670;14.272;2023-06-14T01:19:31;15.70;67.80
38333;DHT22;25748;46.670;14.272;2023-06-14T01:22:01;15.70;68.00
38333;DHT22;25748;46.670;14.272;2023-06-14T01:24:26;15.60;68.00
38333;DHT22;25748;46.670;14.272;2023-06-14T01:26:58;15.50;67.10
38333;DHT22;25748;46.670;14.272;2023-06-14T01:29:25;15.40;67.10
38333;DHT22;25748;46.670;14.272;2023-06-14T01:31:53;15.40;66.50
38333;DHT22;25748;46.670;14.272;2023-06-14T01:34:20;15.20;66.00
38333;DHT22;25748;46.670;14.272;2023-06-14T01:36:47;15.10;66.10
38333;DHT22;25748;46.670;14.272;2023-06-14T01:39:14;15.00;66.30
38333;DHT22;25748;46.670;14.272;2023-06-14T01:41:44;14.90;66.00
38333;DHT22;25748;46.670;14.272;2023-06-14T01:44:12;14.90;66.10
38333;DHT22;25748;46.670;14.272;2023-06-14T01:46:38;14.90;66.20
38333;DHT22;25748;46.670;14.272;2023-06-14T01:49:04;14.80;65.80
38333;DHT22;25748;46.670;14.272;2023-06-14T01:51:29;14.70;65.80
38333;DHT22;25748;46.670;14.272;2023-06-14T01:53:55;14.70;66.20
38333;DHT22;25748;46.670;14.272;2023-06-14T01:56:21;14.60;66.30
38333;DHT22;25748;46.670;14.272;2023-06-14T01:58:47;14.60;65.70
38333;DHT22;25748;46.670;14.272;2023-06-14T02:01:13;14.50;66.20
38333;DHT22;25748;46.670;14.272;2023-06-14T02:03:41;14.40;66.10
38333;DHT22;25748;46.670;14.272;2023-06-14T02:06:07;14.30;66.30
38333;DHT22;25748;46.670;14.272;2023-06-14T02:08:33;14.30;66.60
38333;DHT22;25748;46.670;14.272;2023-06-14T02:10:59;14.20;66.50
38333;DHT22;25748;46.670;14.272;2023-06-14T02:13:24;14.10;66.80
38333;DHT22;25748;46.670;14.272;2023-06-14T02:15:50;14.10;67.00
38333;DHT22;25748;46.670;14.272;2023-06-14T02:18:18;14.00;68.00
38333;DHT22;25748;46.670;14.272;2023-06-14T02:20:44;13.90;68.50
38333;DHT22;25748;46.670;14.272;2023-06-14T02:23:09;13.80;68.70
38333;DHT22;25748;46.670;14.272;2023-06-14T02:25:35;13.80;68.80
38333;DHT22;25748;46.670;14.272;2023-06-14T02:28:01;13.80;68.40
38333;DHT22;25748;46.670;14.272;2023-06-14T02:30:27;13.80;68.40
38333;DHT22;25748;46.670;14.272;2023-06-14T02:32:52;13.70;68.80
38333;DHT22;25748;46.670;14.272;2023-06-14T02:35:18;13.70;69.20
38333;DHT22;25748;46.670;14.272;2023-06-14T02:37:46;13.70;69.70
38333;DHT22;25748;46.670;14.272;2023-06-14T02:40:12;13.60;69.20
38333;DHT22;25748;46.670;14.272;2023-06-14T02:42:37;13.60;68.90
38333;DHT22;25748;46.670;14.272;2023-06-14T02:45:03;13.50;70.20
38333;DHT22;25748;46.670;14.272;2023-06-14T02:47:29;13.40;71.10
38333;DHT22;25748;46.670;14.272;2023-06-14T02:49:55;13.40;71.70
38333;DHT22;25748;46.670;14.272;2023-06-14T02:52:21;13.30;72.60
38333;DHT22;25748;46.670;14.272;2023-06-14T02:54:47;13.30;73.40
38333;DHT22;25748;46.670;14.272;2023-06-14T02:57:13;13.40;73.00
38333;DHT22;25748;46.670;14.272;2023-06-14T02:59:38;13.40;72.70
38333;DHT22;25748;46.670;14.272;2023-06-14T03:02:04;13.50;72.70
38333;DHT22;25748;46.670;14.272;2023-06-14T03:04:30;13.40;72.90
38333;DHT22;25748;46.670;14.272;2023-06-14T03:07:03;13.40;73.80
38333;DHT22;25748;46.670;14.272;2023-06-14T03:09:37;13.40;74.20
38333;DHT22;25748;46.670;14.272;2023-06-14T03:12:03;13.40;73.70
38333;DHT22;25748;46.670;14.272;2023-06-14T03:14:30;13.40;73.90
38333;DHT22;25748;46.670;14.272;2023-06-14T03:16:56;13.40;74.30
38333;DHT22;25748;46.670;14.272;2023-06-14T03:19:22;13.40;74.40
38333;DHT22;25748;46.670;14.272;2023-06-14T03:21:48;13.40;74.60
38333;DHT22;25748;46.670;14.272;2023-06-14T03:24:15;13.40;74.60
38333;DHT22;25748;46.670;14.272;2023-06-14T03:26:42;13.40;75.40
38333;DHT22;25748;46.670;14.272;2023-06-14T03:29:07;13.40;75.60
38333;DHT22;25748;46.670;14.272;2023-06-14T03:31:34;13.40;75.70
38333;DHT22;25748;46.670;14.272;2023-06-14T03:34:01;13.40;75.80
38333;DHT22;25748;46.670;14.272;2023-06-14T03:36:27;13.50;75.90
38333;DHT22;25748;46.670;14.272;2023-06-14T03:38:53;13.50;75.80
38333;DHT22;25748;46.670;14.272;2023-06-14T03:41:20;13.50;75.80
38333;DHT22;25748;46.670;14.272;2023-06-14T03:43:45;13.50;75.90
38333;DHT22;25748;46.670;14.272;2023-06-14T03:46:11;13.50;76.40
38333;DHT22;25748;46.670;14.272;2023-06-14T03:48:37;13.60;76.60
38333;DHT22;25748;46.670;14.272;2023-06-14T03:51:04;13.60;77.00
38333;DHT22;25748;46.670;14.272;2023-06-14T03:53:30;13.70;77.20
38333;DHT22;25748;46.670;14.272;2023-06-14T03:55:56;13.70;77.40
38333;DHT22;25748;46.670;14.272;2023-06-14T03:58:22;13.70;77.70
38333;DHT22;25748;46.670;14.272;2023-06-14T04:00:48;13.70;77.90
38333;DHT22;25748;46.670;14.272;2023-06-14T04:03:14;13.70;78.10
38333;DHT22;25748;46.670;14.272;2023-06-14T04:05:41;13.80;77.60
38333;DHT22;25748;46.670;14.272;2023-06-14T04:08:14;13.80;78.50
38333;DHT22;25748;46.670;14.272;2023-06-14T04:10:41;13.80;78.40
38333;DHT22;25748;46.670;14.272;2023-06-14T04:13:07;13.90;78.50
38333;DHT22;25748;46.670;14.272;2023-06-14T04:15:39;13.90;78.50
38333;DHT22;25748;46.670;14.272;2023-06-14T04:18:08;14.00;78.50
38333;DHT22;25748;46.670;14.272;2023-06-14T04:20:33;14.00;78.30
38333;DHT22;25748;46.670;14.272;2023-06-14T04:23:14;14.10;78.30
38333;DHT22;25748;46.670;14.272;2023-06-14T04:25:41;14.10;78.00
38333;DHT22;25748;46.670;14.272;2023-06-14T04:28:11;14.20;78.30
38333;DHT22;25748;46.670;14.272;2023-06-14T04:30:37;14.20;78.20
38333;DHT22;25748;46.670;14.272;2023-06-14T04:33:04;14.20;78.20
38333;DHT22;25748;46.670;14.272;2023-06-14T04:35:31;14.20;77.70
38333;DHT22;25748;46.670;14.272;2023-06-14T04:37:58;14.30;77.90
38333;DHT22;25748;46.670;14.272;2023-06-14T04:40:24;14.30;78.10
38333;DHT22;25748;46.670;14.272;2023-06-14T04:42:50;14.40;78.60
38333;DHT22;25748;46.670;14.272;2023-06-14T04:45:16;14.40;78.90
38333;DHT22;25748;46.670;14.272;2023-06-14T04:47:42;14.50;78.50
38333;DHT22;25748;46.670;14.272;2023-06-14T04:50:09;14.50;78.00
38333;DHT22;25748;46.670;14.272;2023-06-14T04:52:36;14.60;78.00
38333;DHT22;25748;46.670;14.272;2023-06-14T04:55:03;14.60;77.80
38333;DHT22;25748;46.670;14.272;2023-06-14T04:57:28;14.70;77.40
38333;DHT22;25748;46.670;14.272;2023-06-14T04:59:54;14.70;77.80
38333;DHT22;25748;46.670;14.272;2023-06-14T05:02:24;14.70;77.70
38333;DHT22;25748;46.670;14.272;2023-06-14T05:04:51;14.80;77.80
38333;DHT22;25748;46.670;14.272;2023-06-14T05:07:17;14.80;76.70
38333;DHT22;25748;46.670;14.272;2023-06-14T05:09:44;14.80;77.20
38333;DHT22;25748;46.670;14.272;2023-06-14T05:12:09;14.90;77.70
38333;DHT22;25748;46.670;14.272;2023-06-14T05:14:35;14.90;76.90
38333;DHT22;25748;46.670;14.272;2023-06-14T05:17:01;14.90;76.20
38333;DHT22;25748;46.670;14.272;2023-06-14T05:19:28;15.00;76.50
38333;DHT22;25748;46.670;14.272;2023-06-14T05:21:53;15.10;76.70
38333;DHT22;25748;46.670;14.272;2023-06-14T05:24:19;15.00;76.10
38333;DHT22;25748;46.670;14.272;2023-06-14T05:26:46;15.10;75.80
38333;DHT22;25748;46.670;14.272;2023-06-14T05:29:12;15.00;76.40
38333;DHT22;25748;46.670;14.272;2023-06-14T05:31:38;15.10;76.40
38333;DHT22;25748;46.670;14.272;2023-06-14T05:34:04;15.10;76.70
38333;DHT22;25748;46.670;14.272;2023-06-14T05:36:29;15.10;76.60
38333;DHT22;25748;46.670;14.272;2023-06-14T05:38:55;15.20;76.60
38333;DHT22;25748;46.670;14.272;2023-06-14T05:41:28;15.20;76.60
38333;DHT22;25748;46.670;14.272;2023-06-14T05:43:55;15.30;76.20
38333;DHT22;25748;46.670;14.272;2023-06-14T05:46:21;15.20;75.70
38333;DHT22;25748;46.670;14.272;2023-06-14T05:48:50;15.20;75.70
38333;DHT22;25748;46.670;14.272;2023-06-14T05:51:16;15.20;75.00
38333;DHT22;25748;46.670;14.272;2023-06-14T05:53:47;15.20;75.00
38333;DHT22;25748;46.670;14.272;2023-06-14T05:56:14;15.30;75.90
38333;DHT22;25748;46.670;14.272;2023-06-14T05:58:40;15.30;76.10
38333;DHT22;25748;46.670;14.272;2023-06-14T06:01:06;15.40;76.20
38333;DHT22;25748;46.670;14.272;2023-06-14T06:03:32;15.40;76.30
38333;DHT22;25748;46.670;14.272;2023-06-14T06:05:58;15.50;76.20
38333;DHT22;25748;46.670;14.272;2023-06-14T06:08:24;15.50;75.90
38333;DHT22;25748;46.670;14.272;2023-06-14T06:10:49;15.40;75.40
38333;DHT22;25748;46.670;14.272;2023-06-14T06:13:15;15.50;75.50
38333;DHT22;25748;46.670;14.272;2023-06-14T06:15:41;15.50;76.30
38333;DHT22;25748;46.670;14.272;2023-06-14T06:18:07;15.70;76.70
38333;DHT22;25748;46.670;14.272;2023-06-14T06:20:32;15.70;75.80
38333;DHT22;25748;46.670;14.272;2023-06-14T06:22:58;15.80;76.20
38333;DHT22;25748;46.670;14.272;2023-06-14T06:25:25;15.90;75.60
38333;DHT22;25748;46.670;14.272;2023-06-14T06:27:52;16.00;75.10
38333;DHT22;25748;46.670;14.272;2023-06-14T06:30:21;16.00;74.90
38333;DHT22;25748;46.670;14.272;2023-06-14T06:32:47;16.10;73.80
38333;DHT22;25748;46.670;14.272;2023-06-14T06:35:13;16.20;72.50
38333;DHT22;25748;46.670;14.272;2023-06-14T06:37:39;16.30;72.00
38333;DHT22;25748;46.670;14.272;2023-06-14T06:40:05;16.30;70.20
38333;DHT22;25748;46.670;14.272;2023-06-14T06:42:31;16.30;66.30
38333;DHT22;25748;46.670;14.272;2023-06-14T06:44:57;16.10;64.10
38333;DHT22;25748;46.670;14.272;2023-06-14T06:47:23;16.30;65.60
38333;DHT22;25748;46.670;14.272;2023-06-14T06:49:50;16.40;64.70
38333;DHT22;25748;46.670;14.272;2023-06-14T06:52:16;16.40;64.70
38333;DHT22;25748;46.670;14.272;2023-06-14T06:54:42;16.50;65.30
38333;DHT22;25748;46.670;14.272;2023-06-14T06:57:07;16.60;64.60
38333;DHT22;25748;46.670;14.272;2023-06-14T06:59:33;16.70;64.60
38333;DHT22;25748;46.670;14.272;2023-06-14T07:01:59;16.80;64.30
38333;DHT22;25748;46.670;14.272;2023-06-14T07:04:25;16.80;63.60
38333;DHT22;25748;46.670;14.272;2023-06-14T07:06:50;16.70;62.80
38333;DHT22;25748;46.670;14.272;2023-06-14T07:09:16;16.70;63.70
38333;DHT22;25748;46.670;14.272;2023-06-14T07:11:46;16.80;63.40
38333;DHT22;25748;46.670;14.272;2023-06-14T07:14:12;16.70;63.10
38333;DHT22;25748;46.670;14.272;2023-06-14T07:16:38;16.80;63.60
38333;DHT22;25748;46.670;14.272;2023-06-14T07:19:04;16.80;62.90
38333;DHT22;25748;46.670;14.272;2023-06-14T07:21:29;16.80;63.50
38333;DHT22;25748;46.670;14.272;2023-06-14T07:23:56;16.80;63.30
38333;DHT22;25748;46.670;14.272;2023-06-14T07:26:22;16.90;63.30
38333;DHT22;25748;46.670;14.272;2023-06-14T07:28:48;16.90;62.90
38333;DHT22;25748;46.670;14.272;2023-06-14T07:31:15;16.90;62.70
38333;DHT22;25748;46.670;14.272;2023-06-14T07:33:42;16.90;62.70
38333;DHT22;25748;46.670;14.272;2023-06-14T07:36:08;16.90;62.70
38333;DHT22;25748;46.670;14.272;2023-06-14T07:38:34;16.80;62.50
38333;DHT22;25748;46.670;14.272;2023-06-14T07:41:00;16.90;62.60
38333;DHT22;25748;46.670;14.272;2023-06-14T07:43:26;16.90;62.70
38333;DHT22;25748;46.670;14.272;2023-06-14T07:45:52;16.90;62.70
38333;DHT22;25748;46.670;14.272;2023-06-14T07:48:18;16.90;62.80
38333;DHT22;25748;46.670;14.272;2023-06-14T07:50:44;16.90;62.90
38333;DHT22;25748;46.670;14.272;2023-06-14T07:53:09;16.90;62.80
38333;DHT22;25748;46.670;14.272;2023-06-14T07:55:35;16.80;60.90
38333;DHT22;25748;46.670;14.272;2023-06-14T07:58:06;16.80;61.50
38333;DHT22;25748;46.670;14.272;2023-06-14T08:00:32;16.70;61.00
38333;DHT22;25748;46.670;14.272;2023-06-14T08:02:58;16.60;61.70
38333;DHT22;25748;46.670;14.272;2023-06-14T08:05:28;16.80;61.90
38333;DHT22;25748;46.670;14.272;2023-06-14T08:07:54;16.80;62.20
38333;DHT22;25748;46.670;14.272;2023-06-14T08:10:21;16.90;62.20
38333;DHT22;25748;46.670;14.272;2023-06-14T08:12:47;17.00;62.50
38333;DHT22;25748;46.670;14.272;2023-06-14T08:15:14;16.90;61.50
38333;DHT22;25748;46.670;14.272;2023-06-14T08:17:40;17.00;62.10
38333;DHT22;25748;46.670;14.272;2023-06-14T08:20:06;17.00;62.70
38333;DHT22;25748;46.670;14.272;2023-06-14T08:22:32;17.10;63.00
38333;DHT22;25748;46.670;14.272;2023-06-14T08:25:01;17.10;62.80
38333;DHT22;25748;46.670;14.272;2023-06-14T08:27:27;17.20;62.70
38333;DHT22;25748;46.670;14.272;2023-06-14T08:29:53;17.20;62.00
38333;DHT22;25748;46.670;14.272;2023-06-14T08:32:19;17.20;62.20
38333;DHT22;25748;46.670;14.272;2023-06-14T08:34:45;17.20;62.70
38333;DHT22;25748;46.670;14.272;2023-06-14T08:37:10;17.40;62.40
38333;DHT22;25748;46.670;14.272;2023-06-14T08:39:36;17.50;61.90
38333;DHT22;25748;46.670;14.272;2023-06-14T08:42:03;17.40;61.40
38333;DHT22;25748;46.670;14.272;2023-06-14T08:44:30;17.60;61.60
38333;DHT22;25748;46.670;14.272;2023-06-14T08:46:56;17.60;60.60
38333;DHT22;25748;46.670;14.272;2023-06-14T08:49:24;17.70;61.60
38333;DHT22;25748;46.670;14.272;2023-06-14T08:51:59;18.00;60.70
38333;DHT22;25748;46.670;14.272;2023-06-14T08:54:28;18.20;61.80
38333;DHT22;25748;46.670;14.272;2023-06-14T08:57:00;18.30;59.90
38333;DHT22;25748;46.670;14.272;2023-06-14T08:59:28;18.60;59.50
38333;DHT22;25748;46.670;14.272;2023-06-14T09:01:56;18.70;58.20
38333;DHT22;25748;46.670;14.272;2023-06-14T09:04:23;18.80;57.70
38333;DHT22;25748;46.670;14.272;2023-06-14T09:06:49;19.00;56.70
38333;DHT22;25748;46.670;14.272;2023-06-14T09:09:20;19.00;56.20
38333;DHT22;25748;46.670;14.272;2023-06-14T09:11:46;19.10;56.50
38333;DHT22;25748;46.670;14.272;2023-06-14T09:14:12;19.30;56.10
38333;DHT22;25748;46.670;14.272;2023-06-14T09:16:38;19.40;55.70
38333;DHT22;25748;46.670;14.272;2023-06-14T09:19:03;19.60;55.00
38333;DHT22;25748;46.670;14.272;2023-06-14T09:21:33;19.70;55.10
38333;DHT22;25748;46.670;14.272;2023-06-14T09:23:59;19.70;55.90
38333;DHT22;25748;46.670;14.272;2023-06-14T09:26:25;19.80;56.20
38333;DHT22;25748;46.670;14.272;2023-06-14T09:28:53;20.00;56.00
38333;DHT22;25748;46.670;14.272;2023-06-14T09:31:20;20.20;55.70
38333;DHT22;25748;46.670;14.272;2023-06-14T09:33:47;20.40;53.90
38333;DHT22;25748;46.670;14.272;2023-06-14T09:36:24;20.60;53.60
38333;DHT22;25748;46.670;14.272;2023-06-14T09:39:02;20.60;54.50
38333;DHT22;25748;46.670;14.272;2023-06-14T09:41:40;20.40;53.00
38333;DHT22;25748;46.670;14.272;2023-06-14T09:44:07;20.30;53.40
38333;DHT22;25748;46.670;14.272;2023-06-14T09:46:34;20.10;53.20
38333;DHT22;25748;46.670;14.272;2023-06-14T09:49:01;20.20;53.10
38333;DHT22;25748;46.670;14.272;2023-06-14T09:51:27;20.20;53.20
38333;DHT22;25748;46.670;14.272;2023-06-14T09:53:59;20.30;52.50
38333;DHT22;25748;46.670;14.272;2023-06-14T09:56:32;20.20;53.20
38333;DHT22;25748;46.670;14.272;2023-06-14T09:59:01;20.30;52.90
38333;DHT22;25748;46.670;14.272;2023-06-14T10:01:30;19.90;53.70
38333;DHT22;25748;46.670;14.272;2023-06-14T10:04:04;19.90;53.30
38333;DHT22;25748;46.670;14.272;2023-06-14T10:06:31;20.00;53.80
38333;DHT22;25748;46.670;14.272;2023-06-14T10:09:00;20.00;53.70
38333;DHT22;25748;46.670;14.272;2023-06-14T10:11:27;20.20;53.30
38333;DHT22;25748;46.670;14.272;2023-06-14T10:13:54;20.30;53.20
38333;DHT22;25748;46.670;14.272;2023-06-14T10:16:42;20.30;53.50
38333;DHT22;25748;46.670;14.272;2023-06-14T10:19:15;20.30;53.00
38333;DHT22;25748;46.670;14.272;2023-06-14T10:22:01;20.30;53.20
38333;DHT22;25748;46.670;14.272;2023-06-14T10:24:33;20.40;52.20
38333;DHT22;25748;46.670;14.272;2023-06-14T10:27:00;20.50;53.00
38333;DHT22;25748;46.670;14.272;2023-06-14T10:29:29;20.50;53.00
38333;DHT22;25748;46.670;14.272;2023-06-14T10:31:59;20.60;53.30
38333;DHT22;25748;46.670;14.272;2023-06-14T10:34:29;20.50;53.10
38333;DHT22;25748;46.670;14.272;2023-06-14T10:37:07;20.70;52.60
38333;DHT22;25748;46.670;14.272;2023-06-14T10:39:40;20.60;53.00
38333;DHT22;25748;46.670;14.272;2023-06-14T10:42:07;20.50;52.00
38333;DHT22;25748;46.670;14.272;2023-06-14T10:44:54;20.70;52.40
38333;DHT22;25748;46.670;14.272;2023-06-14T10:47:29;20.90;51.90
38333;DHT22;25748;46.670;14.272;2023-06-14T10:50:08;21.20;52.10
38333;DHT22;25748;46.670;14.272;2023-06-14T10:52:39;21.60;51.50
38333;DHT22;25748;46.670;14.272;2023-06-14T11:00:14;22.10;48.90
38333;DHT22;25748;46.670;14.272;2023-06-14T11:11:16;22.80;49.00
38333;DHT22;25748;46.670;14.272;2023-06-14T11:13:45;22.90;48.20
38333;DHT22;25748;46.670;14.272;2023-06-14T11:16:17;22.80;49.10
38333;DHT22;25748;46.670;14.272;2023-06-14T11:18:44;22.80;49.10
38333;DHT22;25748;46.670;14.272;2023-06-14T11:21:11;22.80;48.60
38333;DHT22;25748;46.670;14.272;2023-06-14T11:23:37;22.90;48.10
38333;DHT22;25748;46.670;14.272;2023-06-14T11:26:03;22.90;47.90
38333;DHT22;25748;46.670;14.272;2023-06-14T11:28:40;22.90;47.70
38333;DHT22;25748;46.670;14.272;2023-06-14T11:31:06;22.80;48.20
38333;DHT22;25748;46.670;14.272;2023-06-14T11:33:32;23.00;47.80
38333;DHT22;25748;46.670;14.272;2023-06-14T11:35:58;22.70;47.90
38333;DHT22;25748;46.670;14.272;2023-06-14T11:38:27;22.60;49.20
38333;DHT22;25748;46.670;14.272;2023-06-14T11:40:52;22.90;48.30
38333;DHT22;25748;46.670;14.272;2023-06-14T11:43:18;22.90;48.80
38333;DHT22;25748;46.670;14.272;2023-06-14T11:45:48;22.80;48.20
38333;DHT22;25748;46.670;14.272;2023-06-14T11:48:13;23.00;48.10
38333;DHT22;25748;46.670;14.272;2023-06-14T11:50:39;23.50;47.40
38333;DHT22;25748;46.670;14.272;2023-06-14T11:53:05;23.70;47.40
38333;DHT22;25748;46.670;14.272;2023-06-14T11:55:39;23.80;48.10
38333;DHT22;25748;46.670;14.272;2023-06-14T11:58:06;23.90;46.10
38333;DHT22;25748;46.670;14.272;2023-06-14T12:00:31;24.10;47.10
38333;DHT22;25748;46.670;14.272;2023-06-14T12:02:57;24.00;47.30
38333;DHT22;25748;46.670;14.272;2023-06-14T12:05:24;24.10;46.10
38333;DHT22;25748;46.670;14.272;2023-06-14T12:07:50;23.90;46.60
38333;DHT22;25748;46.670;14.272;2023-06-14T12:10:19;24.00;46.20
38333;DHT22;25748;46.670;14.272;2023-06-14T12:12:45;23.60;47.50
38333;DHT22;25748;46.670;14.272;2023-06-14T12:15:10;23.90;46.20
38333;DHT22;25748;46.670;14.272;2023-06-14T12:17:39;24.00;46.90
38333;DHT22;25748;46.670;14.272;2023-06-14T12:22:37;24.30;45.90
38333;DHT22;25748;46.670;14.272;2023-06-14T12:25:04;24.50;46.40
38333;DHT22;25748;46.670;14.272;2023-06-14T12:27:31;24.70;45.90
38333;DHT22;25748;46.670;14.272;2023-06-14T12:30:01;24.70;45.20
38333;DHT22;25748;46.670;14.272;2023-06-14T12:32:28;24.80;46.00
38333;DHT22;25748;46.670;14.272;2023-06-14T12:34:54;24.90;46.30
38333;DHT22;25748;46.670;14.272;2023-06-14T12:37:20;24.80;45.20
38333;DHT22;25748;46.670;14.272;2023-06-14T12:39:46;24.90;45.10
38333;DHT22;25748;46.670;14.272;2023-06-14T12:42:11;25.00;44.20
38333;DHT22;25748;46.670;14.272;2023-06-14T12:44:40;24.60;44.90
38333;DHT22;25748;46.670;14.272;2023-06-14T12:47:07;24.80;45.20
38333;DHT22;25748;46.670;14.272;2023-06-14T12:49:36;24.90;45.30
38333;DHT22;25748;46.670;14.272;2023-06-14T12:52:01;24.90;46.10
38333;DHT22;25748;46.670;14.272;2023-06-14T12:54:27;24.80;45.40
38333;DHT22;25748;46.670;14.272;2023-06-14T12:56:53;24.70;46.10
38333;DHT22;25748;46.670;14.272;2023-06-14T12:59:20;24.60;46.10
38333;DHT22;25748;46.670;14.272;2023-06-14T13:01:46;24.40;45.50
38333;DHT22;25748;46.670;14.272;2023-06-14T13:04:15;24.30;46.50
38333;DHT22;25748;46.670;14.272;2023-06-14T13:06:40;24.40;46.70
38333;DHT22;25748;46.670;14.272;2023-06-14T13:09:06;24.40;47.30
38333;DHT22;25748;46.670;14.272;2023-06-14T13:11:33;24.50;45.50
38333;DHT22;25748;46.670;14.272;2023-06-14T13:13:59;24.70;46.00
38333;DHT22;25748;46.670;14.272;2023-06-14T13:16:24;24.80;45.90
38333;DHT22;25748;46.670;14.272;2023-06-14T13:18:50;24.90;45.50
38333;DHT22;25748;46.670;14.272;2023-06-14T13:21:16;24.80;45.60
38333;DHT22;25748;46.670;14.272;2023-06-14T13:23:42;24.90;45.90
38333;DHT22;25748;46.670;14.272;2023-06-14T13:26:07;24.90;45.80
38333;DHT22;25748;46.670;14.272;2023-06-14T13:28:33;24.90;45.80
38333;DHT22;25748;46.670;14.272;2023-06-14T13:31:00;24.90;45.20
38333;DHT22;25748;46.670;14.272;2023-06-14T13:33:26;24.90;45.40
38333;DHT22;25748;46.670;14.272;2023-06-14T13:35:52;24.80;44.30
38333;DHT22;25748;46.670;14.272;2023-06-14T13:38:18;24.70;44.80
38333;DHT22;25748;46.670;14.272;2023-06-14T13:40:44;24.70;45.10
38333;DHT22;25748;46.670;14.272;2023-06-14T13:43:10;24.60;44.40
38333;DHT22;25748;46.670;14.272;2023-06-14T13:45:35;24.60;44.20
38333;DHT22;25748;46.670;14.272;2023-06-14T13:48:01;24.50;45.20
38333;DHT22;25748;46.670;14.272;2023-06-14T13:50:27;24.10;45.40
38333;DHT22;25748;46.670;14.272;2023-06-14T13:52:53;24.00;45.60
38333;DHT22;25748;46.670;14.272;2023-06-14T13:55:18;24.00;45.20
38333;DHT22;25748;46.670;14.272;2023-06-14T13:57:44;24.00;45.80
38333;DHT22;25748;46.670;14.272;2023-06-14T14:00:11;24.20;44.70
38333;DHT22;25748;46.670;14.272;2023-06-14T14:02:37;24.10;45.00
38333;DHT22;25748;46.670;14.272;2023-06-14T14:05:03;24.10;44.20
38333;DHT22;25748;46.670;14.272;2023-06-14T14:07:29;24.20;44.30
38333;DHT22;25748;46.670;14.272;2023-06-14T14:09:55;24.20;44.10
38333;DHT22;25748;46.670;14.272;2023-06-14T14:12:23;24.00;45.40
38333;DHT22;25748;46.670;14.272;2023-06-14T14:14:48;24.10;44.80
38333;DHT22;25748;46.670;14.272;2023-06-14T14:17:14;24.30;46.00
38333;DHT22;25748;46.670;14.272;2023-06-14T14:19:40;24.40;45.40
38333;DHT22;25748;46.670;14.272;2023-06-14T14:22:06;24.50;43.70
38333;DHT22;25748;46.670;14.272;2023-06-14T14:24:31;24.50;43.50
38333;DHT22;25748;46.670;14.272;2023-06-14T14:26:57;24.60;44.40
38333;DHT22;25748;46.670;14.272;2023-06-14T14:29:25;24.60;43.80
38333;DHT22;25748;46.670;14.272;2023-06-14T14:31:54;24.60;43.80
38333;DHT22;25748;46.670;14.272;2023-06-14T14:34:20;24.20;43.30
38333;DHT22;25748;46.670;14.272;2023-06-14T14:36:46;23.90;44.20
38333;DHT22;25748;46.670;14.272;2023-06-14T14:39:11;23.70;44.00
38333;DHT22;25748;46.670;14.272;2023-06-14T14:41:37;23.50;44.40
38333;DHT22;25748;46.670;14.272;2023-06-14T14:44:04;23.40;44.20
38333;DHT22;25748;46.670;14.272;2023-06-14T14:46:30;23.20;44.70
38333;DHT22;25748;46.670;14.272;2023-06-14T14:48:56;22.90;44.70
38333;DHT22;25748;46.670;14.272;2023-06-14T14:51:21;23.00;45.10
38333;DHT22;25748;46.670;14.272;2023-06-14T14:53:47;22.80;45.40
38333;DHT22;25748;46.670;14.272;2023-06-14T14:56:13;23.00;45.60
38333;DHT22;25748;46.670;14.272;2023-06-14T14:58:38;23.00;45.70
38333;DHT22;25748;46.670;14.272;2023-06-14T15:01:04;23.00;45.80
38333;DHT22;25748;46.670;14.272;2023-06-14T15:03:31;23.00;46.10
38333;DHT22;25748;46.670;14.272;2023-06-14T15:05:56;23.00;46.30
38333;DHT22;25748;46.670;14.272;2023-06-14T15:08:22;23.00;45.90
38333;DHT22;25748;46.670;14.272;2023-06-14T15:10:48;22.90;46.10
38333;DHT22;25748;46.670;14.272;2023-06-14T15:13:14;22.90;46.00
38333;DHT22;25748;46.670;14.272;2023-06-14T15:15:39;22.80;46.20
38333;DHT22;25748;46.670;14.272;2023-06-14T15:18:05;22.80;46.20
38333;DHT22;25748;46.670;14.272;2023-06-14T15:20:31;22.70;46.80
38333;DHT22;25748;46.670;14.272;2023-06-14T15:22:57;22.70;45.90
38333;DHT22;25748;46.670;14.272;2023-06-14T15:25:28;22.70;46.10
38333;DHT22;25748;46.670;14.272;2023-06-14T15:27:55;22.60;46.60
38333;DHT22;25748;46.670;14.272;2023-06-14T15:30:21;22.60;46.50
38333;DHT22;25748;46.670;14.272;2023-06-14T15:32:46;22.60;46.00